createdAt,value
2023-03-08T00:12:31.484Z,4768.06885
2023-03-08T00:27:34.014Z,3366.43701
2023-03-08T00:42:36.924Z,2239.12158
2023-03-08T00:57:39.201Z,1471.42273
2023-03-08T01:12:41.584Z,855.90668
2023-03-08T01:27:43.961Z,410.9903
2023-03-08T01:42:46.300Z,125.04185
2023-03-08T01:57:48.731Z,15.50907
2023-03-08T02:12:51.067Z,0.96932
2023-03-08T02:27:53.450Z,0
2023-03-08T02:42:55.854Z,0
2023-03-08T02:57:58.247Z,0
2023-03-08T03:13:00.676Z,0
2023-03-08T03:28:03.037Z,0
2023-03-08T03:43:05.507Z,0
2023-03-08T03:58:07.826Z,0
2023-03-08T04:13:10.215Z,0
2023-03-08T04:28:12.731Z,0
2023-03-08T04:43:15.042Z,0
2023-03-08T04:58:17.346Z,0
2023-03-08T05:13:19.719Z,0
2023-03-08T05:28:22.078Z,0
2023-03-08T05:43:24.455Z,0
2023-03-08T05:58:26.753Z,0
2023-03-08T06:13:29.076Z,0
2023-03-08T06:28:31.636Z,0
2023-03-08T06:43:33.986Z,0
2023-03-08T06:58:36.370Z,0
2023-03-08T07:13:38.732Z,0
2023-03-08T07:28:41.057Z,0
2023-03-08T07:58:56.680Z,0
2023-03-08T08:14:01.278Z,0
2023-03-08T08:29:06.100Z,0
2023-03-08T08:44:11.714Z,0
2023-03-08T08:59:16.524Z,0
2023-03-08T09:14:21.026Z,0
2023-03-08T09:29:25.570Z,0
2023-03-08T09:44:30.050Z,0
2023-03-08T09:59:34.373Z,0
2023-03-08T10:14:38.738Z,0
2023-03-08T10:29:43.135Z,0
2023-03-08T10:44:47.601Z,0
2023-03-08T10:59:52.016Z,0
2023-03-08T11:14:56.585Z,0
2023-03-08T11:30:01.021Z,0
2023-03-08T11:45:05.428Z,0
2023-03-08T12:00:09.859Z,0
2023-03-08T12:15:14.236Z,0
2023-03-08T12:30:18.578Z,0
2023-03-08T12:45:22.969Z,0
2023-03-08T13:00:27.486Z,0
2023-03-08T13:15:31.964Z,0
2023-03-08T13:30:36.405Z,0
2023-03-08T13:45:40.874Z,0
2023-03-08T14:00:45.314Z,8.72385
2023-03-08T14:15:49.831Z,94.02372
2023-03-08T14:30:54.376Z,366.40173
2023-03-08T14:45:58.805Z,744.43524
2023-03-08T15:01:03.145Z,1312.45483
2023-03-08T15:16:07.987Z,2680.16064
2023-03-08T15:31:12.576Z,2798.41748
2023-03-08T15:46:17.190Z,7928.0415
2023-03-08T16:01:21.661Z,12732.94434
2023-03-08T16:16:38.492Z,26290.77734
2023-03-08T16:31:48.841Z,17993.42578
2023-03-08T16:46:53.329Z,12894.82031
2023-03-08T17:01:57.715Z,11186.88379
2023-03-08T17:17:02.300Z,10398.83008
2023-03-08T17:32:06.849Z,12557.49805
2023-03-08T17:47:11.288Z,13923.26562
2023-03-08T18:02:15.897Z,13069.29688
2023-03-08T18:17:18.193Z,25905.95898
2023-03-08T18:32:20.456Z,22864.24219
2023-03-08T18:47:22.775Z,24451.01367
2023-03-08T19:02:27.594Z,26960.57617
2023-03-08T19:17:31.047Z,21908.49609
2023-03-08T19:32:33.359Z,24444.22852
2023-03-08T19:47:35.714Z,16195.34375
2023-03-08T20:02:37.938Z,7257.27441
2023-03-08T20:17:40.180Z,22586.04883
2023-03-08T20:32:42.496Z,20378.91406
2023-03-08T20:47:45.202Z,18439.3125
2023-03-08T21:02:47.549Z,11214.99414
2023-03-08T21:17:49.770Z,10256.33984
2023-03-08T21:32:51.994Z,10071.20117
2023-03-08T21:47:54.300Z,8736.45117
2023-03-08T22:02:56.612Z,8777.16309
2023-03-08T22:17:58.906Z,8085.0708
2023-03-08T22:33:01.231Z,9303.50195
2023-03-08T22:48:03.418Z,10430.81738
2023-03-08T23:03:05.728Z,10529.6875
2023-03-08T23:18:08.024Z,14016.31934
2023-03-08T23:33:10.347Z,15865.77637
2023-03-08T23:48:12.588Z,13971.73145
